createdAt,value
2018-04-01T08:02:26.709Z,2480
2018-04-01T08:02:39.341Z,2596
2018-04-01T08:02:51.978Z,2744
2018-04-01T08:03:04.614Z,2820
2018-04-01T08:03:17.199Z,2688
2018-04-01T08:03:29.790Z,2584
2018-04-01T08:03:42.373Z,2532
2018-04-01T08:03:55.008Z,2496
2018-04-01T08:04:07.622Z,2504
2018-04-01T08:04:20.388Z,2616
2018-04-01T08:04:32.989Z,2828
2018-04-01T08:04:45.620Z,3028
2018-04-01T08:04:58.208Z,3088
2018-04-01T08:05:10.798Z,2948
2018-04-01T08:05:23.392Z,2728
2018-04-01T08:05:36.001Z,2496
2018-04-01T08:05:48.589Z,2300
2018-04-01T08:06:01.199Z,2168
2018-04-01T08:06:13.786Z,2104
2018-04-01T08:06:26.375Z,2132
2018-04-01T08:06:38.993Z,2252
2018-04-01T08:06:51.605Z,2400
2018-04-01T08:07:04.197Z,2496
2018-04-01T08:07:16.806Z,2508
2018-04-01T08:07:29.394Z,2440
2018-04-01T08:07:41.986Z,2376
2018-04-01T08:07:54.601Z,2352
2018-04-01T08:08:07.256Z,2360
2018-04-01T08:08:19.819Z,2364
2018-04-01T08:08:32.432Z,2364
2018-04-01T08:08:45.023Z,2392
2018-04-01T08:08:57.633Z,2460
2018-04-01T08:09:10.238Z,2568
2018-04-01T08:09:22.854Z,2712
2018-04-01T08:09:35.437Z,2812
2018-04-01T08:09:48.048Z,2752
2018-04-01T08:10:00.709Z,2588
2018-04-01T08:10:13.302Z,2436
2018-04-01T08:10:25.891Z,2372
2018-04-01T08:10:38.503Z,2400
2018-04-01T08:10:51.095Z,2536
2018-04-01T08:11:03.674Z,2732
2018-04-01T08:11:16.270Z,2844
2018-04-01T08:11:28.883Z,2832
2018-04-01T08:11:41.522Z,2824
2018-04-01T08:11:54.135Z,2740
2018-04-01T08:12:06.749Z,2620
2018-04-01T08:12:19.342Z,2536
2018-04-01T08:12:31.933Z,2504
2018-04-01T08:12:44.521Z,2520
2018-04-01T08:12:57.111Z,2560
2018-04-01T08:13:09.703Z,2640
2018-04-01T08:13:22.293Z,2700
2018-04-01T08:13:34.881Z,2740
2018-04-01T08:13:47.475Z,2716
2018-04-01T08:14:00.085Z,2604
2018-04-01T08:14:12.678Z,2456
2018-04-01T08:14:25.287Z,2364
2018-04-01T08:14:37.880Z,2348
2018-04-01T08:14:50.507Z,2348
2018-04-01T08:15:03.220Z,2372
2018-04-01T08:15:15.834Z,2404
2018-04-01T08:15:28.434Z,2452
2018-04-01T08:15:41.101Z,2548
2018-04-01T08:15:53.707Z,2676
2018-04-01T08:16:06.313Z,2792
2018-04-01T08:16:18.926Z,2840
2018-04-01T08:16:31.510Z,2824
2018-04-01T08:16:44.108Z,2784
2018-04-01T08:16:56.718Z,2752
2018-04-01T08:17:09.308Z,2708
2018-04-01T08:17:21.896Z,2612
2018-04-01T08:17:34.489Z,2472
2018-04-01T08:17:47.109Z,2348
2018-04-01T08:17:59.725Z,2392
2018-04-01T08:18:12.308Z,2636
2018-04-01T08:18:24.908Z,2916
2018-04-01T08:18:37.526Z,3092
2018-04-01T08:18:50.114Z,3224
2018-04-01T08:19:02.733Z,3328
2018-04-01T08:19:15.341Z,3280
2018-04-01T08:19:27.992Z,3176
2018-04-01T08:19:40.569Z,3084
2018-04-01T08:19:53.152Z,2964
2018-04-01T08:20:05.745Z,2768
2018-04-01T08:20:18.365Z,2572
2018-04-01T08:20:30.969Z,2488
2018-04-01T08:20:43.560Z,2524
2018-04-01T08:20:56.150Z,2644
2018-04-01T08:21:08.741Z,2756
2018-04-01T08:21:21.332Z,2840
2018-04-01T08:21:33.951Z,2908
2018-04-01T08:21:46.520Z,2972
2018-04-01T08:21:59.107Z,3000
2018-04-01T08:22:11.696Z,3004
2018-04-01T08:22:24.289Z,3004
2018-04-01T08:22:36.901Z,3016
2018-04-01T08:22:49.492Z,2988
2018-04-01T08:23:02.086Z,2920
2018-04-01T08:23:14.700Z,2844
2018-04-01T08:23:27.325Z,2808
2018-04-01T08:23:39.881Z,2808
2018-04-01T08:23:52.496Z,2864
2018-04-01T08:24:05.087Z,3016
2018-04-01T08:24:17.701Z,3180
2018-04-01T08:24:30.298Z,3376
2018-04-01T08:24:42.909Z,3696
2018-04-01T08:24:55.498Z,4088
2018-04-01T08:25:08.087Z,4320
2018-04-01T08:25:20.678Z,4248
2018-04-01T08:25:33.274Z,3996
2018-04-01T08:25:45.866Z,3816
2018-04-01T08:25:58.475Z,3800
2018-04-01T08:26:11.068Z,3920
2018-04-01T08:26:23.710Z,3840
2018-04-01T08:26:36.346Z,3748
2018-04-01T08:26:48.999Z,3804
2018-04-01T08:27:01.641Z,3836
2018-04-01T08:27:14.258Z,3668
2018-04-01T08:27:26.946Z,3364
2018-04-01T08:27:39.514Z,3092
2018-04-01T08:27:52.102Z,2956
2018-04-01T08:28:04.694Z,2960
2018-04-01T08:28:17.285Z,3056
2018-04-01T08:28:29.906Z,3224
2018-04-01T08:28:42.530Z,3416
2018-04-01T08:28:55.119Z,3564
2018-04-01T08:29:07.710Z,3560
2018-04-01T08:29:20.304Z,3568
2018-04-01T08:29:32.918Z,3600
2018-04-01T08:29:45.529Z,3676
2018-04-01T08:29:58.120Z,3780
2018-04-01T08:30:10.708Z,3812
2018-04-01T08:30:23.303Z,3744
2018-04-01T08:30:35.893Z,3640
2018-04-01T08:30:48.488Z,3604
2018-04-01T08:31:01.081Z,3664
2018-04-01T08:31:13.672Z,3788
2018-04-01T08:31:26.262Z,3876
2018-04-01T08:31:38.847Z,3828
2018-04-01T08:31:51.434Z,3600
2018-04-01T08:32:04.052Z,3428
2018-04-01T08:32:16.655Z,3416
2018-04-01T08:32:29.244Z,3444
2018-04-01T08:32:41.833Z,3440
2018-04-01T08:32:54.425Z,3380
2018-04-01T08:33:07.036Z,3280
2018-04-01T08:33:19.630Z,3232
2018-04-01T08:33:32.242Z,3232
2018-04-01T08:33:44.834Z,3248
2018-04-01T08:33:57.445Z,3260
2018-04-01T08:34:10.039Z,3268
2018-04-01T08:34:22.654Z,3316
2018-04-01T08:34:35.245Z,3428
2018-04-01T08:34:47.853Z,3604
2018-04-01T08:35:00.447Z,3792
2018-04-01T08:35:13.052Z,3920
2018-04-01T08:35:25.649Z,3892
2018-04-01T08:35:38.263Z,3720
2018-04-01T08:35:50.900Z,3544
2018-04-01T08:36:03.479Z,3404
2018-04-01T08:36:16.075Z,3264
2018-04-01T08:36:28.666Z,3092
2018-04-01T08:36:41.261Z,2908
2018-04-01T08:36:53.852Z,2788
2018-04-01T08:37:06.442Z,2768
2018-04-01T08:37:19.034Z,2820
2018-04-01T08:37:31.630Z,2900
2018-04-01T08:37:44.274Z,3008
2018-04-01T08:37:56.883Z,3196
2018-04-01T08:38:09.476Z,3400
2018-04-01T08:38:22.093Z,3556
2018-04-01T08:38:34.688Z,3676
2018-04-01T08:38:47.300Z,3724
2018-04-01T08:38:59.890Z,3668
2018-04-01T08:39:12.483Z,3504
2018-04-01T08:39:25.076Z,3312
2018-04-01T08:39:37.694Z,3148
2018-04-01T08:39:50.284Z,3076
2018-04-01T08:40:02.907Z,3136
2018-04-01T08:40:15.501Z,3240
2018-04-01T08:40:28.116Z,3340
2018-04-01T08:40:40.747Z,3444
2018-04-01T08:40:53.365Z,3584
2018-04-01T08:41:05.960Z,3768
2018-04-01T08:41:18.580Z,3924
2018-04-01T08:41:31.167Z,4036
2018-04-01T08:41:43.759Z,4056
2018-04-01T08:41:56.374Z,3948
2018-04-01T08:42:08.965Z,3792
2018-04-01T08:42:21.559Z,3664
2018-04-01T08:42:34.168Z,3672
2018-04-01T08:42:46.765Z,3792
2018-04-01T08:42:59.357Z,3896
2018-04-01T08:43:11.942Z,4004
2018-04-01T08:43:24.533Z,4032
2018-04-01T08:43:37.126Z,4040
2018-04-01T08:43:49.720Z,4104
2018-04-01T08:44:02.380Z,4124
2018-04-01T08:44:14.968Z,4008
2018-04-01T08:44:27.562Z,3800
2018-04-01T08:44:40.176Z,3636
2018-04-01T08:44:52.793Z,3640
2018-04-01T08:45:05.406Z,3784
2018-04-01T08:45:17.996Z,3936
2018-04-01T08:45:30.582Z,4152
2018-04-01T08:45:43.188Z,4360
2018-04-01T08:45:55.802Z,4420
2018-04-01T08:46:08.396Z,4372
2018-04-01T08:46:21.032Z,4536
2018-04-01T08:46:33.627Z,5232
2018-04-01T08:46:46.221Z,6052
2018-04-01T08:46:58.854Z,6700
2018-04-01T08:47:11.462Z,7192
2018-04-01T08:47:24.068Z,7456
2018-04-01T08:47:36.721Z,6984
2018-04-01T08:47:49.311Z,6208
2018-04-01T08:48:01.900Z,5700
2018-04-01T08:48:14.548Z,5716
2018-04-01T08:48:27.086Z,6036
2018-04-01T08:48:39.707Z,6008
2018-04-01T08:48:52.367Z,5604
2018-04-01T08:49:04.959Z,5256
2018-04-01T08:49:17.575Z,5156
2018-04-01T08:49:30.164Z,5136
2018-04-01T08:49:42.752Z,5108
2018-04-01T08:49:55.366Z,5100
2018-04-01T08:50:07.960Z,5016
2018-04-01T08:50:20.578Z,4784
2018-04-01T08:50:33.163Z,4508
2018-04-01T08:50:45.748Z,4232
2018-04-01T08:50:58.337Z,4044
2018-04-01T08:51:10.925Z,3868
2018-04-01T08:51:23.519Z,3688
2018-04-01T08:51:36.103Z,3616
2018-04-01T08:51:48.697Z,3692
2018-04-01T08:52:01.340Z,3832
2018-04-01T08:52:13.914Z,3940
2018-04-01T08:52:26.502Z,3984
2018-04-01T08:52:39.098Z,3944
2018-04-01T08:52:51.708Z,3840
2018-04-01T08:53:04.354Z,3700
2018-04-01T08:53:17.022Z,3672
2018-04-01T08:53:29.560Z,3916
2018-04-01T08:53:42.151Z,4424
2018-04-01T08:53:54.742Z,5048
2018-04-01T08:54:07.380Z,5512
2018-04-01T08:54:19.978Z,5608
2018-04-01T08:54:32.562Z,5312
2018-04-01T08:54:45.176Z,4952
2018-04-01T08:54:57.784Z,4764
2018-04-01T08:55:10.379Z,4736
2018-04-01T08:55:22.970Z,4796
2018-04-01T08:55:35.564Z,4860
2018-04-01T08:55:48.179Z,4844
2018-04-01T08:56:00.762Z,4724
2018-04-01T08:56:13.355Z,4704
2018-04-01T08:56:25.950Z,4676
2018-04-01T08:56:38.562Z,4564
2018-04-01T08:56:51.535Z,4368
2018-04-01T08:57:04.106Z,4340
2018-04-01T08:57:16.686Z,4516
2018-04-01T08:57:29.279Z,4752
2018-04-01T08:57:41.874Z,4916
2018-04-01T08:57:54.459Z,4896
2018-04-01T08:58:07.054Z,4744
2018-04-01T08:58:19.642Z,4540
2018-04-01T08:58:32.241Z,4240
2018-04-01T08:58:44.835Z,4012
2018-04-01T08:58:57.442Z,3916
2018-04-01T08:59:10.024Z,3952
2018-04-01T08:59:22.796Z,4040
2018-04-01T08:59:35.351Z,4120
2018-04-01T08:59:47.978Z,4148
2018-04-01T09:00:00.559Z,4296
2018-04-01T09:00:13.150Z,4612
2018-04-01T09:00:25.770Z,5040
2018-04-01T09:00:38.360Z,5496
2018-04-01T09:00:50.957Z,5700
2018-04-01T09:01:03.545Z,5788
2018-04-01T09:01:16.137Z,5936
2018-04-01T09:01:28.731Z,6176
2018-04-01T09:01:41.380Z,6316
2018-04-01T09:01:54.001Z,6372
2018-04-01T09:02:06.615Z,6192
2018-04-01T09:02:19.205Z,5916
2018-04-01T09:02:31.796Z,5916
2018-04-01T09:02:44.392Z,6204
2018-04-01T09:02:56.982Z,6556
2018-04-01T09:03:09.576Z,6752
2018-04-01T09:03:22.176Z,6692
2018-04-01T09:03:34.758Z,6488
2018-04-01T09:03:47.347Z,6768
2018-04-01T09:03:59.974Z,7108
2018-04-01T09:04:12.595Z,7056
2018-04-01T09:04:25.228Z,6704
2018-04-01T09:04:37.823Z,6616
2018-04-01T09:04:50.433Z,6768
2018-04-01T09:05:03.057Z,6952
2018-04-01T09:05:15.654Z,6940
2018-04-01T09:05:28.332Z,6632
2018-04-01T09:05:40.907Z,6256
2018-04-01T09:05:53.499Z,5984
2018-04-01T09:06:06.093Z,5768
2018-04-01T09:06:18.729Z,5508
2018-04-01T09:06:31.715Z,5324
2018-04-01T09:06:44.276Z,5344
2018-04-01T09:06:56.861Z,5620
2018-04-01T09:07:09.448Z,6124
2018-04-01T09:07:22.041Z,6856
2018-04-01T09:07:34.625Z,7480
2018-04-01T09:07:47.218Z,7392
2018-04-01T09:07:59.829Z,6648
2018-04-01T09:08:12.417Z,6048
2018-04-01T09:08:25.009Z,5628
2018-04-01T09:08:37.599Z,5428
2018-04-01T09:08:50.266Z,5476
2018-04-01T09:09:02.838Z,5716
2018-04-01T09:09:15.442Z,6192
2018-04-01T09:09:28.033Z,6736
2018-04-01T09:09:40.653Z,7068
2018-04-01T09:09:53.291Z,7108
2018-04-01T09:10:05.879Z,6772
2018-04-01T09:10:18.471Z,6124
2018-04-01T09:10:31.113Z,5436
2018-04-01T09:10:43.652Z,4948
2018-04-01T09:10:56.263Z,4584
2018-04-01T09:11:08.846Z,4388
2018-04-01T09:11:21.460Z,4412
2018-04-01T09:11:34.077Z,4592
2018-04-01T09:11:46.667Z,4780
2018-04-01T09:11:59.306Z,4856
2018-04-01T09:12:11.901Z,4868
2018-04-01T09:12:24.490Z,4888
2018-04-01T09:12:37.132Z,4976
2018-04-01T09:12:49.720Z,5104
2018-04-01T09:13:02.321Z,5188
2018-04-01T09:13:14.905Z,5244
2018-04-01T09:13:27.493Z,5300
2018-04-01T09:13:40.084Z,5260
2018-04-01T09:13:52.674Z,5096
2018-04-01T09:14:05.347Z,4876
2018-04-01T09:14:17.921Z,4680
2018-04-01T09:14:30.510Z,4624
2018-04-01T09:14:43.123Z,4656
2018-04-01T09:14:55.737Z,4720
2018-04-01T09:15:08.332Z,4756
2018-04-01T09:15:20.999Z,4788
2018-04-01T09:15:33.611Z,4816
2018-04-01T09:15:46.206Z,4876
2018-04-01T09:15:58.820Z,5028
2018-04-01T09:16:11.405Z,5136
2018-04-01T09:16:24.001Z,5072
2018-04-01T09:16:36.614Z,4904
2018-04-01T09:16:49.202Z,4840
2018-04-01T09:17:01.829Z,4868
2018-04-01T09:17:14.404Z,4848
2018-04-01T09:17:27.020Z,4764
2018-04-01T09:17:39.616Z,4736
2018-04-01T09:17:52.200Z,4856
2018-04-01T09:18:04.789Z,5072
2018-04-01T09:18:17.389Z,5292
2018-04-01T09:18:29.998Z,5440
2018-04-01T09:18:42.592Z,5456
2018-04-01T09:18:55.203Z,5404
2018-04-01T09:19:07.805Z,5312
2018-04-01T09:19:20.389Z,5260
2018-04-01T09:19:32.979Z,5188
2018-04-01T09:19:45.590Z,5020
2018-04-01T09:19:58.185Z,4812
2018-04-01T09:20:10.797Z,4532
2018-04-01T09:20:23.390Z,4260
2018-04-01T09:20:36.004Z,4096
2018-04-01T09:20:48.594Z,4084
2018-04-01T09:21:01.208Z,4208
2018-04-01T09:21:13.831Z,4404
2018-04-01T09:21:26.419Z,4584
2018-04-01T09:21:39.018Z,4668
2018-04-01T09:21:51.633Z,4644
2018-04-01T09:22:04.294Z,4620
2018-04-01T09:22:16.894Z,4616
2018-04-01T09:22:29.478Z,4560
2018-04-01T09:22:42.065Z,4512
2018-04-01T09:22:54.662Z,4644
2018-04-01T09:23:07.283Z,4892
2018-04-01T09:23:19.863Z,5068
2018-04-01T09:23:32.457Z,5004
2018-04-01T09:23:45.105Z,4728
2018-04-01T09:23:57.722Z,4404
2018-04-01T09:24:10.367Z,4200
2018-04-01T09:24:22.955Z,4140
2018-04-01T09:24:35.561Z,4124
2018-04-01T09:24:48.159Z,4044
2018-04-01T09:25:00.795Z,3956
2018-04-01T09:25:13.367Z,3972
2018-04-01T09:25:25.957Z,4092
2018-04-01T09:25:38.585Z,4292
2018-04-01T09:25:51.191Z,4596
2018-04-01T09:26:03.806Z,4956
2018-04-01T09:26:16.423Z,5320
2018-04-01T09:26:29.041Z,5728
2018-04-01T09:26:41.628Z,6228
2018-04-01T09:26:54.221Z,6868
2018-04-01T09:27:06.814Z,7556
2018-04-01T09:27:19.403Z,7588
2018-04-01T09:27:32.022Z,6752
2018-04-01T09:27:44.588Z,6180
2018-04-01T09:27:57.235Z,5968
2018-04-01T09:28:09.898Z,6012
2018-04-01T09:28:22.534Z,6148
2018-04-01T09:28:35.148Z,6332
2018-04-01T09:28:47.742Z,6596
2018-04-01T09:29:00.356Z,6968
2018-04-01T09:29:12.952Z,7392
2018-04-01T09:29:25.607Z,7136
2018-04-01T09:29:38.161Z,6572
2018-04-01T09:29:50.752Z,6104
2018-04-01T09:30:03.336Z,6076
2018-04-01T09:30:15.930Z,6552
2018-04-01T09:30:28.543Z,7360
2018-04-01T09:30:41.136Z,7852
2018-04-01T09:30:53.780Z,7664
2018-04-01T09:31:06.420Z,7272
2018-04-01T09:31:19.015Z,7020
2018-04-01T09:31:31.635Z,7068
2018-04-01T09:31:44.260Z,6964
2018-04-01T09:31:56.849Z,6952
2018-04-01T09:32:09.468Z,6812
2018-04-01T09:32:22.081Z,6648
2018-04-01T09:32:34.696Z,6600
2018-04-01T09:32:47.307Z,6424
2018-04-01T09:32:59.894Z,6232
2018-04-01T09:33:12.486Z,6300
2018-04-01T09:33:25.081Z,6368
2018-04-01T09:33:37.694Z,6652
2018-04-01T09:33:50.359Z,6960
2018-04-01T09:34:02.972Z,6956
2018-04-01T09:34:15.563Z,6564
2018-04-01T09:34:28.157Z,6080
2018-04-01T09:34:40.756Z,5764
2018-04-01T09:34:53.346Z,5756
2018-04-01T09:35:05.959Z,5916
2018-04-01T09:35:18.607Z,6044
2018-04-01T09:35:31.280Z,6112
2018-04-01T09:35:43.952Z,6216
2018-04-01T09:35:56.564Z,6340
2018-04-01T09:36:09.190Z,6344
2018-04-01T09:36:21.799Z,6164
2018-04-01T09:36:34.394Z,5944
2018-04-01T09:36:47.048Z,5976
2018-04-01T09:36:59.670Z,6224
2018-04-01T09:37:12.232Z,6488
2018-04-01T09:37:24.823Z,6488
2018-04-01T09:37:37.465Z,6472
2018-04-01T09:37:50.081Z,6656
2018-04-01T09:38:02.673Z,6724
2018-04-01T09:38:15.262Z,6656
2018-04-01T09:38:27.851Z,6504
2018-04-01T09:38:40.445Z,6368
2018-04-01T09:38:53.094Z,6352
2018-04-01T09:39:05.696Z,6392
2018-04-01T09:39:18.371Z,6412
2018-04-01T09:39:31.046Z,6328
2018-04-01T09:39:43.698Z,6176
2018-04-01T09:39:56.319Z,6012
2018-04-01T09:40:08.976Z,6016
2018-04-01T09:40:21.546Z,6312
2018-04-01T09:40:34.143Z,6644
2018-04-01T09:40:46.741Z,6384
2018-04-01T09:40:59.421Z,6016
2018-04-01T09:41:12.032Z,6052
2018-04-01T09:41:24.633Z,6712
2018-04-01T09:41:37.246Z,7160
2018-04-01T09:41:49.879Z,7096
2018-04-01T09:42:02.467Z,6632
2018-04-01T09:42:15.088Z,6112
2018-04-01T09:42:27.701Z,5780
2018-04-01T09:42:40.312Z,5640
2018-04-01T09:42:52.906Z,5748
2018-04-01T09:43:05.524Z,5952
2018-04-01T09:43:18.161Z,5968
2018-04-01T09:43:30.817Z,5968
2018-04-01T09:43:43.441Z,6072
2018-04-01T09:43:56.047Z,6108
2018-04-01T09:44:08.635Z,5860
2018-04-01T09:44:21.278Z,5416
2018-04-01T09:44:33.898Z,5064
2018-04-01T09:44:46.547Z,4876
2018-04-01T09:44:59.182Z,4768
2018-04-01T09:45:11.797Z,4604
2018-04-01T09:45:24.384Z,4520
2018-04-01T09:45:36.976Z,4644
2018-04-01T09:45:49.636Z,5232
2018-04-01T09:46:02.256Z,6512
2018-04-01T09:46:14.843Z,7940
2018-04-01T09:46:27.436Z,8928
2018-04-01T09:46:40.023Z,9088
2018-04-01T09:46:52.611Z,7924
2018-04-01T09:47:05.197Z,6576
2018-04-01T09:47:17.822Z,5768
2018-04-01T09:47:30.458Z,5392
2018-04-01T09:47:43.075Z,5376
2018-04-01T09:47:55.690Z,5416
2018-04-01T09:48:08.323Z,5472
2018-04-01T09:48:20.915Z,5600
2018-04-01T09:48:33.504Z,5720
2018-04-01T09:48:46.133Z,5836
2018-04-01T09:48:58.775Z,6076
2018-04-01T09:49:11.427Z,5952
2018-04-01T09:49:24.088Z,5852
2018-04-01T09:49:36.662Z,5892
2018-04-01T09:49:49.252Z,5852
2018-04-01T09:50:01.847Z,5716
2018-04-01T09:50:14.438Z,5816
2018-04-01T09:50:27.032Z,6156
2018-04-01T09:50:39.647Z,6416
2018-04-01T09:50:52.249Z,6532
2018-04-01T09:51:04.828Z,6484
2018-04-01T09:51:17.439Z,6556
2018-04-01T09:51:30.026Z,6496
2018-04-01T09:51:42.675Z,6060
2018-04-01T09:51:55.317Z,5500
2018-04-01T09:52:07.936Z,5332
2018-04-01T09:52:20.553Z,5364
2018-04-01T09:52:33.166Z,5588
2018-04-01T09:52:45.766Z,6008
2018-04-01T09:52:58.378Z,6452
2018-04-01T09:53:10.995Z,6700
2018-04-01T09:53:23.608Z,6680
2018-04-01T09:53:36.202Z,6480
2018-04-01T09:53:48.798Z,6124
2018-04-01T09:54:01.416Z,5856
2018-04-01T09:54:14.070Z,5668
2018-04-01T09:54:26.732Z,5416
2018-04-01T09:54:40.184Z,5220
2018-04-01T09:54:52.125Z,5264
2018-04-01T09:55:04.743Z,5432
2018-04-01T09:55:17.348Z,5472
2018-04-01T09:55:29.936Z,5408
2018-04-01T09:55:42.559Z,5404
2018-04-01T09:55:55.144Z,5420
2018-04-01T09:56:07.742Z,5404
2018-04-01T09:56:20.330Z,5504
2018-04-01T09:56:32.946Z,5624
2018-04-01T09:56:45.554Z,5632
2018-04-01T09:56:58.219Z,5784
2018-04-01T09:57:10.829Z,6176
2018-04-01T09:57:23.480Z,6640
2018-04-01T09:57:36.141Z,6948
2018-04-01T09:57:48.775Z,7208
2018-04-01T09:58:01.349Z,7360
2018-04-01T09:58:13.980Z,6848
2018-04-01T09:58:26.603Z,6200
2018-04-01T09:58:39.191Z,5844
2018-04-01T09:58:51.784Z,5812
2018-04-01T09:59:04.394Z,5800
2018-04-01T09:59:16.981Z,5804
2018-04-01T09:59:29.577Z,5880
2018-04-01T09:59:42.178Z,5700
2018-04-01T09:59:54.792Z,5512
2018-04-01T10:00:07.402Z,5516
2018-04-01T10:00:19.997Z,5488
2018-04-01T10:00:32.610Z,5556
2018-04-01T10:00:45.198Z,5780
2018-04-01T10:00:57.794Z,6240
2018-04-01T10:01:10.412Z,6728
2018-04-01T10:01:23.028Z,7008
2018-04-01T10:01:35.618Z,7024
2018-04-01T10:01:48.284Z,6732
2018-04-01T10:02:00.902Z,6276
2018-04-01T10:02:13.511Z,5716
2018-04-01T10:02:26.203Z,5356
2018-04-01T10:02:38.827Z,5268
2018-04-01T10:02:51.421Z,5480
2018-04-01T10:03:04.012Z,5668
2018-04-01T10:03:16.602Z,5856
2018-04-01T10:03:29.200Z,6148
2018-04-01T10:03:41.862Z,6664
2018-04-01T10:03:54.471Z,7064
2018-04-01T10:04:07.084Z,7036
2018-04-01T10:04:19.719Z,6700
2018-04-01T10:04:32.327Z,5956
2018-04-01T10:04:44.897Z,5436
2018-04-01T10:04:57.518Z,5208
2018-04-01T10:05:10.134Z,5148
2018-04-01T10:05:22.755Z,5188
2018-04-01T10:05:35.370Z,5224
2018-04-01T10:05:47.965Z,5200
2018-04-01T10:06:00.648Z,5172
2018-04-01T10:06:13.303Z,5124
2018-04-01T10:06:25.896Z,4980
2018-04-01T10:06:38.518Z,4792
2018-04-01T10:06:51.326Z,4672
2018-04-01T10:07:03.976Z,4680
2018-04-01T10:07:16.630Z,4792
2018-04-01T10:07:29.236Z,4856
2018-04-01T10:07:41.888Z,4836
2018-04-01T10:07:54.506Z,4720
2018-04-01T10:08:07.125Z,4512
2018-04-01T10:08:19.740Z,4244
2018-04-01T10:08:32.407Z,4032
2018-04-01T10:08:45.047Z,3972
2018-04-01T10:08:57.630Z,4072
2018-04-01T10:09:10.243Z,4336
2018-04-01T10:09:22.830Z,4756
2018-04-01T10:09:35.425Z,5216
2018-04-01T10:09:48.034Z,5476
2018-04-01T10:10:00.634Z,5356
2018-04-01T10:10:13.248Z,4940
2018-04-01T10:10:25.837Z,4544
2018-04-01T10:10:38.428Z,4240
2018-04-01T10:10:51.044Z,4024
2018-04-01T10:11:03.656Z,3916
2018-04-01T10:11:16.293Z,3876
2018-04-01T10:11:28.920Z,3812
2018-04-01T10:11:41.530Z,3704
2018-04-01T10:11:54.125Z,3648
2018-04-01T10:12:06.740Z,3668
2018-04-01T10:12:19.325Z,3716
2018-04-01T10:12:31.967Z,3764
2018-04-01T10:12:44.561Z,3804
2018-04-01T10:12:57.171Z,3848
2018-04-01T10:13:09.810Z,3868
2018-04-01T10:13:22.395Z,3840
2018-04-01T10:13:35.001Z,3816
2018-04-01T10:13:47.612Z,3824
2018-04-01T10:14:00.204Z,3912
2018-04-01T10:14:12.794Z,4036
2018-04-01T10:14:25.387Z,4168
2018-04-01T10:14:37.976Z,4288
2018-04-01T10:14:50.567Z,4408
2018-04-01T10:15:03.157Z,4500
2018-04-01T10:15:15.744Z,4508
2018-04-01T10:15:28.335Z,4572
2018-04-01T10:15:40.925Z,4772
2018-04-01T10:15:53.514Z,5024
2018-04-01T10:16:06.105Z,5268
2018-04-01T10:16:18.719Z,5460
2018-04-01T10:16:31.419Z,5664
2018-04-01T10:16:44.037Z,5952
2018-04-01T10:16:56.628Z,6224
2018-04-01T10:17:09.287Z,6688
2018-04-01T10:17:21.923Z,7076
2018-04-01T10:17:34.526Z,7404
2018-04-01T10:17:47.117Z,7560
2018-04-01T10:17:59.710Z,7512
2018-04-01T10:18:12.351Z,7560
2018-04-01T10:18:24.946Z,7596
2018-04-01T10:18:37.542Z,7700
2018-04-01T10:18:50.146Z,8204
2018-04-01T10:19:02.739Z,9256
2018-04-01T10:19:15.403Z,10184
2018-04-01T10:19:28.067Z,10172
2018-04-01T10:19:40.659Z,9704
2018-04-01T10:19:53.252Z,9000
2018-04-01T10:20:05.894Z,8544
2018-04-01T10:20:18.480Z,7892
2018-04-01T10:20:31.073Z,7204
2018-04-01T10:20:43.663Z,6700
2018-04-01T10:20:56.297Z,6340
2018-04-01T10:21:08.906Z,6140
2018-04-01T10:21:21.515Z,6128
2018-04-01T10:21:34.137Z,6580
2018-04-01T10:21:46.750Z,7080
2018-04-01T10:21:59.393Z,7056
2018-04-01T10:22:12.006Z,6900
2018-04-01T10:22:24.618Z,6656
2018-04-01T10:22:37.214Z,6492
2018-04-01T10:22:49.826Z,6512
2018-04-01T10:23:02.415Z,6332
2018-04-01T10:23:15.058Z,5892
2018-04-01T10:23:27.648Z,5480
2018-04-01T10:23:40.290Z,5380
2018-04-01T10:23:52.881Z,5508
2018-04-01T10:24:05.470Z,5592
2018-04-01T10:24:18.063Z,5552
2018-04-01T10:24:30.692Z,5516
2018-04-01T10:24:43.293Z,5624
2018-04-01T10:24:55.915Z,6028
2018-04-01T10:25:08.552Z,6724
2018-04-01T10:25:21.158Z,7144
2018-04-01T10:25:33.752Z,7108
2018-04-01T10:25:46.380Z,7000
2018-04-01T10:25:58.994Z,6776
2018-04-01T10:26:11.589Z,6348
2018-04-01T10:26:24.189Z,5976
2018-04-01T10:26:36.905Z,5760
2018-04-01T10:26:49.516Z,5716
2018-04-01T10:27:02.107Z,5720
2018-04-01T10:27:14.801Z,5656
2018-04-01T10:27:27.370Z,5556
2018-04-01T10:27:39.964Z,5500
2018-04-01T10:27:52.555Z,5464
2018-04-01T10:28:05.152Z,5524
2018-04-01T10:28:17.736Z,5800
2018-04-01T10:28:30.376Z,6060
2018-04-01T10:28:42.969Z,6232
2018-04-01T10:28:55.609Z,6372
2018-04-01T10:29:08.222Z,6472
2018-04-01T10:29:20.810Z,6404
2018-04-01T10:29:33.401Z,6500
2018-04-01T10:29:45.996Z,6840
2018-04-01T10:29:58.607Z,7044
2018-04-01T10:30:11.253Z,6908
2018-04-01T10:30:23.864Z,6604
2018-04-01T10:30:36.451Z,6232
2018-04-01T10:30:49.048Z,6108
2018-04-01T10:31:01.663Z,6264
2018-04-01T10:31:14.276Z,6548
2018-04-01T10:31:26.863Z,6908
2018-04-01T10:31:39.460Z,7280
2018-04-01T10:31:52.049Z,7232
2018-04-01T10:32:04.639Z,7288
2018-04-01T10:32:17.226Z,7416
2018-04-01T10:32:29.819Z,7240
2018-04-01T10:32:42.412Z,6892
2018-04-01T10:32:54.997Z,6840
2018-04-01T10:33:07.590Z,7012
2018-04-01T10:33:20.254Z,7196
2018-04-01T10:33:32.848Z,7964
2018-04-01T10:33:45.439Z,9376
2018-04-01T10:33:58.089Z,10340
2018-04-01T10:34:10.707Z,10152
2018-04-01T10:34:23.320Z,9720
2018-04-01T10:34:35.939Z,9008
2018-04-01T10:34:48.558Z,8332
2018-04-01T10:35:01.180Z,8160
2018-04-01T10:35:13.787Z,8164
2018-04-01T10:35:26.407Z,8180
2018-04-01T10:35:38.995Z,8144
2018-04-01T10:35:51.640Z,8324
2018-04-01T10:36:04.197Z,8260
2018-04-01T10:36:16.816Z,8004
2018-04-01T10:36:29.425Z,7736
2018-04-01T10:36:42.045Z,7400
2018-04-01T10:36:54.656Z,7060
2018-04-01T10:37:07.296Z,6980
2018-04-01T10:37:19.883Z,7428
2018-04-01T10:37:32.478Z,8364
2018-04-01T10:37:45.090Z,8868
2018-04-01T10:37:57.691Z,8212
2018-04-01T10:38:10.300Z,7228
2018-04-01T10:38:22.915Z,6716
2018-04-01T10:38:35.506Z,6528
2018-04-01T10:38:48.120Z,6456
2018-04-01T10:39:00.734Z,6328
2018-04-01T10:39:13.329Z,6240
2018-04-01T10:39:25.955Z,6216
2018-04-01T10:39:38.565Z,6252
2018-04-01T10:39:51.234Z,6244
2018-04-01T10:40:03.841Z,6252
2018-04-01T10:40:16.435Z,6364
2018-04-01T10:40:29.023Z,6368
2018-04-01T10:40:41.618Z,6280
2018-04-01T10:40:54.216Z,6172
2018-04-01T10:41:06.845Z,6012
2018-04-01T10:41:19.456Z,5892
2018-04-01T10:41:32.046Z,5908
2018-04-01T10:41:44.638Z,5988
2018-04-01T10:41:57.230Z,5956
2018-04-01T10:42:09.821Z,5744
2018-04-01T10:42:22.445Z,5516
2018-04-01T10:42:35.029Z,5368
2018-04-01T10:42:47.623Z,5296
2018-04-01T10:43:00.231Z,5180
2018-04-01T10:43:12.835Z,4932
2018-04-01T10:43:25.422Z,4656
2018-04-01T10:43:38.007Z,4464
2018-04-01T10:43:50.650Z,4356
2018-04-01T10:44:03.279Z,4380
2018-04-01T10:44:15.894Z,4624
2018-04-01T10:44:28.486Z,5132
2018-04-01T10:44:41.097Z,5692
2018-04-01T10:44:53.686Z,6088
2018-04-01T10:45:06.274Z,6336
2018-04-01T10:45:18.865Z,6476
2018-04-01T10:45:31.454Z,6448
2018-04-01T10:45:44.046Z,6168
2018-04-01T10:45:56.637Z,5932
2018-04-01T10:46:09.252Z,5856
2018-04-01T10:46:21.866Z,5944
2018-04-01T10:46:34.445Z,6308
2018-04-01T10:46:47.037Z,6828
2018-04-01T10:46:59.628Z,7056
2018-04-01T10:47:12.226Z,6944
2018-04-01T10:47:24.833Z,6476
2018-04-01T10:47:37.443Z,5832
2018-04-01T10:47:50.034Z,5372
2018-04-01T10:48:02.626Z,5236
2018-04-01T10:48:15.269Z,5356
2018-04-01T10:48:27.882Z,5516
2018-04-01T10:48:40.475Z,5600
2018-04-01T10:48:53.063Z,5568
2018-04-01T10:49:05.651Z,5392
2018-04-01T10:49:18.297Z,5176
2018-04-01T10:49:31.001Z,5104
2018-04-01T10:49:43.544Z,5180
2018-04-01T10:49:56.142Z,5316
2018-04-01T10:50:08.792Z,5420